sensor_id;sensor_type;location;lat;lon;timestamp;temperature;humidity
24260;DHT22;12384;48.112;18.418;2022-09-21T00:01:38;7.40;96.10
24260;DHT22;12384;48.112;18.418;2022-09-21T00:04:06;7.40;96.10
24260;DHT22;12384;48.112;18.418;2022-09-21T00:06:35;7.30;96.10
24260;DHT22;12384;48.112;18.418;2022-09-21T00:09:04;7.30;96.30
24260;DHT22;12384;48.112;18.418;2022-09-21T00:11:35;7.30;96.50
24260;DHT22;12384;48.112;18.418;2022-09-21T00:14:05;7.30;96.70
24260;DHT22;12384;48.112;18.418;2022-09-21T00:16:35;7.30;96.80
24260;DHT22;12384;48.112;18.418;2022-09-21T00:19:04;7.30;96.80
24260;DHT22;12384;48.112;18.418;2022-09-21T00:21:33;7.30;96.80
24260;DHT22;12384;48.112;18.418;2022-09-21T00:24:02;7.30;96.90
24260;DHT22;12384;48.112;18.418;2022-09-21T00:26:30;7.30;96.90
24260;DHT22;12384;48.112;18.418;2022-09-21T00:29:01;7.30;96.90
24260;DHT22;12384;48.112;18.418;2022-09-21T00:31:30;7.20;96.90
24260;DHT22;12384;48.112;18.418;2022-09-21T00:34:00;7.20;96.90
24260;DHT22;12384;48.112;18.418;2022-09-21T00:36:29;7.20;96.90
24260;DHT22;12384;48.112;18.418;2022-09-21T00:38:59;7.20;96.90
24260;DHT22;12384;48.112;18.418;2022-09-21T00:41:29;7.10;96.90
24260;DHT22;12384;48.112;18.418;2022-09-21T00:44:29;7.20;97.00
24260;DHT22;12384;48.112;18.418;2022-09-21T00:47:02;7.10;97.00
24260;DHT22;12384;48.112;18.418;2022-09-21T00:49:33;7.10;97.10
24260;DHT22;12384;48.112;18.418;2022-09-21T00:52:03;7.10;97.30
24260;DHT22;12384;48.112;18.418;2022-09-21T00:54:36;7.10;97.50
24260;DHT22;12384;48.112;18.418;2022-09-21T00:57:05;7.10;97.70
24260;DHT22;12384;48.112;18.418;2022-09-21T00:59:36;7.10;97.90
24260;DHT22;12384;48.112;18.418;2022-09-21T01:02:05;7.10;98.10
24260;DHT22;12384;48.112;18.418;2022-09-21T01:04:36;7.10;98.20
24260;DHT22;12384;48.112;18.418;2022-09-21T01:07:08;7.10;98.30
24260;DHT22;12384;48.112;18.418;2022-09-21T01:09:38;7.20;98.50
24260;DHT22;12384;48.112;18.418;2022-09-21T01:12:19;7.20;98.90
24260;DHT22;12384;48.112;18.418;2022-09-21T01:15:13;7.20;98.80
24260;DHT22;12384;48.112;18.418;2022-09-21T01:17:48;7.20;98.90
24260;DHT22;12384;48.112;18.418;2022-09-21T01:20:48;7.20;99.10
24260;DHT22;12384;48.112;18.418;2022-09-21T01:23:41;7.30;99.30
24260;DHT22;12384;48.112;18.418;2022-09-21T01:26:19;7.30;99.40
24260;DHT22;12384;48.112;18.418;2022-09-21T01:29:14;7.30;99.50
24260;DHT22;12384;48.112;18.418;2022-09-21T01:31:48;7.30;99.60
24260;DHT22;12384;48.112;18.418;2022-09-21T01:34:23;7.40;99.80
24260;DHT22;12384;48.112;18.418;2022-09-21T01:36:54;7.40;99.90
24260;DHT22;12384;48.112;18.418;2022-09-21T01:39:25;7.40;99.90
24260;DHT22;12384;48.112;18.418;2022-09-21T01:41:55;7.40;99.90
24260;DHT22;12384;48.112;18.418;2022-09-21T01:44:27;7.50;99.90
24260;DHT22;12384;48.112;18.418;2022-09-21T01:47:00;7.50;99.90
24260;DHT22;12384;48.112;18.418;2022-09-21T01:49:33;7.50;99.90
24260;DHT22;12384;48.112;18.418;2022-09-21T01:52:10;7.50;99.90
24260;DHT22;12384;48.112;18.418;2022-09-21T01:54:44;7.50;99.90
24260;DHT22;12384;48.112;18.418;2022-09-21T01:57:18;7.50;99.80
24260;DHT22;12384;48.112;18.418;2022-09-21T01:59:53;7.50;99.70
24260;DHT22;12384;48.112;18.418;2022-09-21T02:02:25;7.50;99.70
24260;DHT22;12384;48.112;18.418;2022-09-21T02:04:59;7.50;99.70
24260;DHT22;12384;48.112;18.418;2022-09-21T02:07:28;7.50;99.80
24260;DHT22;12384;48.112;18.418;2022-09-21T02:09:57;7.50;99.80
24260;DHT22;12384;48.112;18.418;2022-09-21T02:12:27;7.50;99.90
24260;DHT22;12384;48.112;18.418;2022-09-21T02:14:59;7.50;99.90
24260;DHT22;12384;48.112;18.418;2022-09-21T02:17:34;7.50;99.90
24260;DHT22;12384;48.112;18.418;2022-09-21T02:20:12;7.50;99.90
24260;DHT22;12384;48.112;18.418;2022-09-21T02:22:53;7.50;99.90
24260;DHT22;12384;48.112;18.418;2022-09-21T02:25:44;7.50;99.90
24260;DHT22;12384;48.112;18.418;2022-09-21T02:28:21;7.60;99.90
24260;DHT22;12384;48.112;18.418;2022-09-21T02:31:00;7.60;99.90
24260;DHT22;12384;48.112;18.418;2022-09-21T02:33:33;7.70;99.90
24260;DHT22;12384;48.112;18.418;2022-09-21T02:36:09;7.70;99.90
24260;DHT22;12384;48.112;18.418;2022-09-21T02:38:41;7.80;99.90
24260;DHT22;12384;48.112;18.418;2022-09-21T02:41:17;7.80;99.90
24260;DHT22;12384;48.112;18.418;2022-09-21T02:43:49;7.90;99.90
24260;DHT22;12384;48.112;18.418;2022-09-21T02:46:24;7.90;99.90
24260;DHT22;12384;48.112;18.418;2022-09-21T02:48:57;8.00;99.90
24260;DHT22;12384;48.112;18.418;2022-09-21T02:51:29;8.00;99.90
24260;DHT22;12384;48.112;18.418;2022-09-21T02:54:01;8.00;99.90
24260;DHT22;12384;48.112;18.418;2022-09-21T02:56:31;8.10;99.90
24260;DHT22;12384;48.112;18.418;2022-09-21T02:59:02;8.10;99.90
24260;DHT22;12384;48.112;18.418;2022-09-21T03:01:33;8.20;99.90
24260;DHT22;12384;48.112;18.418;2022-09-21T03:04:02;8.20;99.90
24260;DHT22;12384;48.112;18.418;2022-09-21T03:06:30;8.20;99.90
24260;DHT22;12384;48.112;18.418;2022-09-21T03:08:59;8.30;99.90
24260;DHT22;12384;48.112;18.418;2022-09-21T03:11:27;8.30;99.90
24260;DHT22;12384;48.112;18.418;2022-09-21T03:13:55;8.30;99.90
24260;DHT22;12384;48.112;18.418;2022-09-21T03:16:26;8.30;99.90
24260;DHT22;12384;48.112;18.418;2022-09-21T03:18:56;8.30;99.90
24260;DHT22;12384;48.112;18.418;2022-09-21T03:21:24;8.40;99.90
24260;DHT22;12384;48.112;18.418;2022-09-21T03:23:53;8.40;99.90
24260;DHT22;12384;48.112;18.418;2022-09-21T03:26:21;8.40;99.90
24260;DHT22;12384;48.112;18.418;2022-09-21T03:28:50;8.40;99.90
24260;DHT22;12384;48.112;18.418;2022-09-21T03:31:20;8.50;99.90
24260;DHT22;12384;48.112;18.418;2022-09-21T03:33:49;8.50;99.90
24260;DHT22;12384;48.112;18.418;2022-09-21T03:36:19;8.50;99.90
24260;DHT22;12384;48.112;18.418;2022-09-21T03:38:47;8.50;99.90
24260;DHT22;12384;48.112;18.418;2022-09-21T03:41:16;8.50;99.90
24260;DHT22;12384;48.112;18.418;2022-09-21T03:43:44;8.50;99.90
24260;DHT22;12384;48.112;18.418;2022-09-21T03:46:13;8.50;99.90
24260;DHT22;12384;48.112;18.418;2022-09-21T03:48:41;8.50;99.90
24260;DHT22;12384;48.112;18.418;2022-09-21T03:51:13;8.60;99.90
24260;DHT22;12384;48.112;18.418;2022-09-21T03:53:43;8.60;99.90
24260;DHT22;12384;48.112;18.418;2022-09-21T03:56:11;8.60;99.90
24260;DHT22;12384;48.112;18.418;2022-09-21T03:58:39;8.60;99.90
24260;DHT22;12384;48.112;18.418;2022-09-21T04:01:08;8.60;99.90
24260;DHT22;12384;48.112;18.418;2022-09-21T04:03:37;8.60;99.90
24260;DHT22;12384;48.112;18.418;2022-09-21T04:06:07;8.70;99.90
24260;DHT22;12384;48.112;18.418;2022-09-21T04:08:36;8.60;99.90
24260;DHT22;12384;48.112;18.418;2022-09-21T04:11:21;8.60;99.90
24260;DHT22;12384;48.112;18.418;2022-09-21T04:13:50;8.70;99.90
24260;DHT22;12384;48.112;18.418;2022-09-21T04:16:23;8.70;99.90
24260;DHT22;12384;48.112;18.418;2022-09-21T04:18:52;8.70;99.90
24260;DHT22;12384;48.112;18.418;2022-09-21T04:21:20;8.70;99.90
24260;DHT22;12384;48.112;18.418;2022-09-21T04:23:49;8.70;99.90
24260;DHT22;12384;48.112;18.418;2022-09-21T04:26:23;8.70;99.90
24260;DHT22;12384;48.112;18.418;2022-09-21T04:28:53;8.80;99.90
24260;DHT22;12384;48.112;18.418;2022-09-21T04:31:22;8.70;99.90
24260;DHT22;12384;48.112;18.418;2022-09-21T04:33:52;8.80;99.90
24260;DHT22;12384;48.112;18.418;2022-09-21T04:36:22;8.80;99.90
24260;DHT22;12384;48.112;18.418;2022-09-21T04:38:51;8.80;99.90
24260;DHT22;12384;48.112;18.418;2022-09-21T04:41:19;8.80;99.90
24260;DHT22;12384;48.112;18.418;2022-09-21T04:43:49;8.80;99.90
24260;DHT22;12384;48.112;18.418;2022-09-21T04:46:19;8.90;99.90
24260;DHT22;12384;48.112;18.418;2022-09-21T04:49:06;8.90;99.90
24260;DHT22;12384;48.112;18.418;2022-09-21T04:51:36;9.00;99.90
24260;DHT22;12384;48.112;18.418;2022-09-21T04:54:05;9.00;99.90
24260;DHT22;12384;48.112;18.418;2022-09-21T04:56:33;9.10;99.90
24260;DHT22;12384;48.112;18.418;2022-09-21T04:59:03;9.30;99.90
24260;DHT22;12384;48.112;18.418;2022-09-21T05:01:32;9.40;99.90
24260;DHT22;12384;48.112;18.418;2022-09-21T05:04:01;9.50;99.90
24260;DHT22;12384;48.112;18.418;2022-09-21T05:06:29;9.50;99.90
24260;DHT22;12384;48.112;18.418;2022-09-21T05:08:59;9.50;99.90
24260;DHT22;12384;48.112;18.418;2022-09-21T05:11:45;9.50;99.90
24260;DHT22;12384;48.112;18.418;2022-09-21T05:14:15;9.50;99.90
24260;DHT22;12384;48.112;18.418;2022-09-21T05:16:43;9.50;99.90
24260;DHT22;12384;48.112;18.418;2022-09-21T05:19:15;9.50;99.90
24260;DHT22;12384;48.112;18.418;2022-09-21T05:21:44;9.60;99.90
24260;DHT22;12384;48.112;18.418;2022-09-21T05:24:12;9.60;99.90
24260;DHT22;12384;48.112;18.418;2022-09-21T05:26:40;9.60;99.90
24260;DHT22;12384;48.112;18.418;2022-09-21T05:29:09;9.70;99.90
24260;DHT22;12384;48.112;18.418;2022-09-21T05:31:44;9.70;99.90
24260;DHT22;12384;48.112;18.418;2022-09-21T05:34:31;9.80;99.90
24260;DHT22;12384;48.112;18.418;2022-09-21T05:37:07;9.90;99.90
24260;DHT22;12384;48.112;18.418;2022-09-21T05:39:37;9.90;99.90
24260;DHT22;12384;48.112;18.418;2022-09-21T05:42:07;10.00;99.90
24260;DHT22;12384;48.112;18.418;2022-09-21T05:44:36;10.00;99.90
24260;DHT22;12384;48.112;18.418;2022-09-21T05:47:19;10.10;99.90
24260;DHT22;12384;48.112;18.418;2022-09-21T05:49:56;10.10;99.90
24260;DHT22;12384;48.112;18.418;2022-09-21T05:52:33;10.10;99.90
24260;DHT22;12384;48.112;18.418;2022-09-21T05:55:13;10.10;99.90
24260;DHT22;12384;48.112;18.418;2022-09-21T05:57:52;10.20;99.90
24260;DHT22;12384;48.112;18.418;2022-09-21T06:00:23;10.20;99.90
24260;DHT22;12384;48.112;18.418;2022-09-21T06:03:09;10.30;99.90
24260;DHT22;12384;48.112;18.418;2022-09-21T06:05:44;10.30;99.90
24260;DHT22;12384;48.112;18.418;2022-09-21T06:08:12;10.30;99.90
24260;DHT22;12384;48.112;18.418;2022-09-21T06:10:40;10.40;99.90
24260;DHT22;12384;48.112;18.418;2022-09-21T06:13:09;10.50;99.90
24260;DHT22;12384;48.112;18.418;2022-09-21T06:15:37;10.60;99.90
24260;DHT22;12384;48.112;18.418;2022-09-21T06:18:08;10.70;99.90
24260;DHT22;12384;48.112;18.418;2022-09-21T06:20:43;10.80;99.90
24260;DHT22;12384;48.112;18.418;2022-09-21T06:23:13;10.90;99.90
24260;DHT22;12384;48.112;18.418;2022-09-21T06:25:42;11.00;99.90
24260;DHT22;12384;48.112;18.418;2022-09-21T06:28:12;11.00;99.90
24260;DHT22;12384;48.112;18.418;2022-09-21T06:30:40;11.20;99.90
24260;DHT22;12384;48.112;18.418;2022-09-21T06:33:12;11.20;99.90
24260;DHT22;12384;48.112;18.418;2022-09-21T06:35:51;11.30;99.90
24260;DHT22;12384;48.112;18.418;2022-09-21T06:38:20;11.50;99.90
24260;DHT22;12384;48.112;18.418;2022-09-21T06:40:50;11.70;99.90
24260;DHT22;12384;48.112;18.418;2022-09-21T06:43:19;12.20;99.90
24260;DHT22;12384;48.112;18.418;2022-09-21T06:45:54;12.90;99.90
24260;DHT22;12384;48.112;18.418;2022-09-21T06:48:24;13.80;99.90
24260;DHT22;12384;48.112;18.418;2022-09-21T06:50:56;14.70;99.90
24260;DHT22;12384;48.112;18.418;2022-09-21T06:53:25;15.40;99.90
24260;DHT22;12384;48.112;18.418;2022-09-21T06:55:56;16.20;99.90
24260;DHT22;12384;48.112;18.418;2022-09-21T06:58:26;16.80;99.90
24260;DHT22;12384;48.112;18.418;2022-09-21T07:00:55;17.30;99.90
24260;DHT22;12384;48.112;18.418;2022-09-21T07:03:24;17.90;99.90
24260;DHT22;12384;48.112;18.418;2022-09-21T07:05:53;18.60;98.50
24260;DHT22;12384;48.112;18.418;2022-09-21T07:08:22;19.30;94.90
24260;DHT22;12384;48.112;18.418;2022-09-21T07:11:10;20.10;91.00
24260;DHT22;12384;48.112;18.418;2022-09-21T07:13:39;21.00;84.80
24260;DHT22;12384;48.112;18.418;2022-09-21T07:16:09;21.80;79.40
24260;DHT22;12384;48.112;18.418;2022-09-21T07:18:40;22.50;70.90
24260;DHT22;12384;48.112;18.418;2022-09-21T07:21:10;23.20;65.00
24260;DHT22;12384;48.112;18.418;2022-09-21T07:23:40;23.70;62.70
24260;DHT22;12384;48.112;18.418;2022-09-21T07:26:11;24.40;61.00
24260;DHT22;12384;48.112;18.418;2022-09-21T07:28:40;24.90;59.00
24260;DHT22;12384;48.112;18.418;2022-09-21T07:31:11;25.40;57.30
24260;DHT22;12384;48.112;18.418;2022-09-21T07:33:41;25.80;55.60
24260;DHT22;12384;48.112;18.418;2022-09-21T07:36:10;26.20;53.40
24260;DHT22;12384;48.112;18.418;2022-09-21T07:38:41;26.60;51.80
24260;DHT22;12384;48.112;18.418;2022-09-21T07:41:11;26.90;51.00
24260;DHT22;12384;48.112;18.418;2022-09-21T07:43:40;27.40;50.40
24260;DHT22;12384;48.112;18.418;2022-09-21T07:46:10;27.80;49.60
24260;DHT22;12384;48.112;18.418;2022-09-21T07:48:39;28.20;48.30
24260;DHT22;12384;48.112;18.418;2022-09-21T07:51:10;28.50;45.80
24260;DHT22;12384;48.112;18.418;2022-09-21T07:53:40;28.80;44.30
24260;DHT22;12384;48.112;18.418;2022-09-21T07:56:11;29.00;43.40
24260;DHT22;12384;48.112;18.418;2022-09-21T07:58:40;29.10;41.70
24260;DHT22;12384;48.112;18.418;2022-09-21T08:01:27;29.20;40.50
24260;DHT22;12384;48.112;18.418;2022-09-21T08:03:57;29.30;39.20
24260;DHT22;12384;48.112;18.418;2022-09-21T08:06:28;29.30;38.30
24260;DHT22;12384;48.112;18.418;2022-09-21T08:08:58;29.40;37.70
24260;DHT22;12384;48.112;18.418;2022-09-21T08:11:28;29.50;37.30
24260;DHT22;12384;48.112;18.418;2022-09-21T08:13:58;29.60;37.00
24260;DHT22;12384;48.112;18.418;2022-09-21T08:16:28;29.80;36.40
24260;DHT22;12384;48.112;18.418;2022-09-21T08:18:57;30.00;35.80
24260;DHT22;12384;48.112;18.418;2022-09-21T08:21:27;30.10;35.90
24260;DHT22;12384;48.112;18.418;2022-09-21T08:23:55;30.30;35.90
24260;DHT22;12384;48.112;18.418;2022-09-21T08:26:23;30.40;35.00
24260;DHT22;12384;48.112;18.418;2022-09-21T08:28:52;30.60;33.90
24260;DHT22;12384;48.112;18.418;2022-09-21T08:31:26;30.60;32.70
24260;DHT22;12384;48.112;18.418;2022-09-21T08:33:55;30.60;32.50
24260;DHT22;12384;48.112;18.418;2022-09-21T08:36:24;30.50;33.10
24260;DHT22;12384;48.112;18.418;2022-09-21T08:38:54;30.10;31.90
24260;DHT22;12384;48.112;18.418;2022-09-21T08:41:29;29.90;31.90
24260;DHT22;12384;48.112;18.418;2022-09-21T08:44:08;29.70;32.30
24260;DHT22;12384;48.112;18.418;2022-09-21T08:46:38;29.50;31.90
24260;DHT22;12384;48.112;18.418;2022-09-21T08:49:13;29.20;31.90
24260;DHT22;12384;48.112;18.418;2022-09-21T08:51:47;28.80;31.70
24260;DHT22;12384;48.112;18.418;2022-09-21T08:54:22;28.30;31.10
24260;DHT22;12384;48.112;18.418;2022-09-21T08:56:52;27.50;31.40
24260;DHT22;12384;48.112;18.418;2022-09-21T08:59:32;26.70;32.10
24260;DHT22;12384;48.112;18.418;2022-09-21T09:02:12;26.00;33.20
24260;DHT22;12384;48.112;18.418;2022-09-21T09:04:53;25.70;34.40
24260;DHT22;12384;48.112;18.418;2022-09-21T09:07:42;25.50;35.40
24260;DHT22;12384;48.112;18.418;2022-09-21T09:10:31;25.70;36.00
24260;DHT22;12384;48.112;18.418;2022-09-21T09:15:57;26.40;36.90
24260;DHT22;12384;48.112;18.418;2022-09-21T09:18:36;26.80;36.30
24260;DHT22;12384;48.112;18.418;2022-09-21T09:21:13;27.30;36.00
24260;DHT22;12384;48.112;18.418;2022-09-21T09:24:00;27.70;35.10
24260;DHT22;12384;48.112;18.418;2022-09-21T09:26:34;28.00;34.40
24260;DHT22;12384;48.112;18.418;2022-09-21T09:29:13;28.20;34.40
24260;DHT22;12384;48.112;18.418;2022-09-21T09:31:43;28.50;34.70
24260;DHT22;12384;48.112;18.418;2022-09-21T09:34:15;28.70;33.20
24260;DHT22;12384;48.112;18.418;2022-09-21T09:36:51;28.90;32.80
24260;DHT22;12384;48.112;18.418;2022-09-21T09:39:27;29.00;32.20
24260;DHT22;12384;48.112;18.418;2022-09-21T09:42:10;29.10;31.70
24260;DHT22;12384;48.112;18.418;2022-09-21T09:45:25;29.20;31.70
24260;DHT22;12384;48.112;18.418;2022-09-21T09:48:13;29.30;31.40
24260;DHT22;12384;48.112;18.418;2022-09-21T09:50:45;29.50;32.60
24260;DHT22;12384;48.112;18.418;2022-09-21T09:53:16;29.50;31.30
24260;DHT22;12384;48.112;18.418;2022-09-21T09:55:47;29.60;30.80
24260;DHT22;12384;48.112;18.418;2022-09-21T09:58:20;29.60;30.80
24260;DHT22;12384;48.112;18.418;2022-09-21T10:00:51;29.70;30.60
24260;DHT22;12384;48.112;18.418;2022-09-21T10:03:21;29.70;30.20
24260;DHT22;12384;48.112;18.418;2022-09-21T10:05:50;29.70;30.00
24260;DHT22;12384;48.112;18.418;2022-09-21T10:08:30;29.70;29.50
24260;DHT22;12384;48.112;18.418;2022-09-21T10:11:19;29.80;29.50
24260;DHT22;12384;48.112;18.418;2022-09-21T10:13:49;29.70;29.20
24260;DHT22;12384;48.112;18.418;2022-09-21T10:16:21;29.70;29.40
24260;DHT22;12384;48.112;18.418;2022-09-21T10:18:52;29.70;29.50
24260;DHT22;12384;48.112;18.418;2022-09-21T10:21:23;29.70;29.30
24260;DHT22;12384;48.112;18.418;2022-09-21T10:23:56;29.40;29.20
24260;DHT22;12384;48.112;18.418;2022-09-21T10:26:30;29.20;29.20
24260;DHT22;12384;48.112;18.418;2022-09-21T10:29:01;29.00;29.30
24260;DHT22;12384;48.112;18.418;2022-09-21T10:31:53;29.00;29.70
24260;DHT22;12384;48.112;18.418;2022-09-21T10:34:24;29.10;29.70
24260;DHT22;12384;48.112;18.418;2022-09-21T10:36:54;29.10;29.60
24260;DHT22;12384;48.112;18.418;2022-09-21T10:39:25;29.20;29.60
24260;DHT22;12384;48.112;18.418;2022-09-21T10:41:58;29.20;29.50
24260;DHT22;12384;48.112;18.418;2022-09-21T10:44:40;29.30;29.30
24260;DHT22;12384;48.112;18.418;2022-09-21T10:47:17;29.30;29.20
24260;DHT22;12384;48.112;18.418;2022-09-21T10:49:49;29.40;29.40
24260;DHT22;12384;48.112;18.418;2022-09-21T10:52:21;29.50;29.30
24260;DHT22;12384;48.112;18.418;2022-09-21T10:54:51;29.60;29.10
24260;DHT22;12384;48.112;18.418;2022-09-21T10:57:22;29.60;29.00
24260;DHT22;12384;48.112;18.418;2022-09-21T10:59:53;29.70;29.00
24260;DHT22;12384;48.112;18.418;2022-09-21T11:02:26;29.80;28.60
24260;DHT22;12384;48.112;18.418;2022-09-21T11:04:58;29.90;28.80
24260;DHT22;12384;48.112;18.418;2022-09-21T11:07:31;29.90;28.50
24260;DHT22;12384;48.112;18.418;2022-09-21T11:10:07;29.70;27.90
24260;DHT22;12384;48.112;18.418;2022-09-21T11:12:44;29.30;27.90
24260;DHT22;12384;48.112;18.418;2022-09-21T11:15:26;29.00;28.40
24260;DHT22;12384;48.112;18.418;2022-09-21T11:18:05;28.80;28.70
24260;DHT22;12384;48.112;18.418;2022-09-21T11:20:45;28.70;28.50
24260;DHT22;12384;48.112;18.418;2022-09-21T11:23:23;28.70;29.00
24260;DHT22;12384;48.112;18.418;2022-09-21T11:25:58;28.70;29.10
24260;DHT22;12384;48.112;18.418;2022-09-21T11:28:31;28.60;29.10
24260;DHT22;12384;48.112;18.418;2022-09-21T11:37:19;29.00;28.80
24260;DHT22;12384;48.112;18.418;2022-09-21T11:40:06;29.10;28.60
24260;DHT22;12384;48.112;18.418;2022-09-21T11:42:57;29.20;28.40
24260;DHT22;12384;48.112;18.418;2022-09-21T11:45:44;29.10;28.00
24260;DHT22;12384;48.112;18.418;2022-09-21T11:48:22;28.80;28.20
24260;DHT22;12384;48.112;18.418;2022-09-21T11:51:04;28.60;28.60
24260;DHT22;12384;48.112;18.418;2022-09-21T11:53:43;28.50;28.60
24260;DHT22;12384;48.112;18.418;2022-09-21T11:56:34;28.40;29.10
24260;DHT22;12384;48.112;18.418;2022-09-21T12:02:28;28.90;28.90
24260;DHT22;12384;48.112;18.418;2022-09-21T12:05:05;29.10;29.20
24260;DHT22;12384;48.112;18.418;2022-09-21T12:07:54;29.40;29.80
24260;DHT22;12384;48.112;18.418;2022-09-21T12:10:44;29.60;29.10
24260;DHT22;12384;48.112;18.418;2022-09-21T12:13:25;29.80;28.60
24260;DHT22;12384;48.112;18.418;2022-09-21T12:16:01;29.60;28.20
24260;DHT22;12384;48.112;18.418;2022-09-21T12:18:37;29.10;27.40
24260;DHT22;12384;48.112;18.418;2022-09-21T12:21:17;28.60;28.20
24260;DHT22;12384;48.112;18.418;2022-09-21T12:23:49;28.20;28.70
24260;DHT22;12384;48.112;18.418;2022-09-21T12:26:24;27.80;28.80
24260;DHT22;12384;48.112;18.418;2022-09-21T12:28:56;27.30;29.00
24260;DHT22;12384;48.112;18.418;2022-09-21T12:31:30;26.80;29.00
24260;DHT22;12384;48.112;18.418;2022-09-21T12:34:08;26.20;29.30
24260;DHT22;12384;48.112;18.418;2022-09-21T12:36:43;25.60;29.70
24260;DHT22;12384;48.112;18.418;2022-09-21T12:39:19;25.20;31.10
24260;DHT22;12384;48.112;18.418;2022-09-21T12:41:52;25.20;31.70
24260;DHT22;12384;48.112;18.418;2022-09-21T12:44:25;25.40;31.80
24260;DHT22;12384;48.112;18.418;2022-09-21T12:46:59;25.50;31.00
24260;DHT22;12384;48.112;18.418;2022-09-21T12:49:40;25.70;31.20
24260;DHT22;12384;48.112;18.418;2022-09-21T12:52:16;26.00;31.00
24260;DHT22;12384;48.112;18.418;2022-09-21T12:54:49;26.50;31.30
24260;DHT22;12384;48.112;18.418;2022-09-21T12:57:25;27.00;31.10
24260;DHT22;12384;48.112;18.418;2022-09-21T13:00:19;27.50;30.50
24260;DHT22;12384;48.112;18.418;2022-09-21T13:02:53;27.90;29.30
24260;DHT22;12384;48.112;18.418;2022-09-21T13:05:32;27.90;28.80
24260;DHT22;12384;48.112;18.418;2022-09-21T13:08:09;27.60;28.60
24260;DHT22;12384;48.112;18.418;2022-09-21T13:10:45;27.30;28.80
24260;DHT22;12384;48.112;18.418;2022-09-21T13:13:27;27.30;29.10
24260;DHT22;12384;48.112;18.418;2022-09-21T13:15:57;27.50;29.10
24260;DHT22;12384;48.112;18.418;2022-09-21T13:18:28;27.80;29.30
24260;DHT22;12384;48.112;18.418;2022-09-21T13:21:14;28.20;29.10
24260;DHT22;12384;48.112;18.418;2022-09-21T13:23:51;28.60;28.20
24260;DHT22;12384;48.112;18.418;2022-09-21T13:26:31;28.90;28.10
24260;DHT22;12384;48.112;18.418;2022-09-21T13:31:56;29.30;27.50
24260;DHT22;12384;48.112;18.418;2022-09-21T13:34:28;29.50;27.00
24260;DHT22;12384;48.112;18.418;2022-09-21T13:43:44;28.80;26.80
24260;DHT22;12384;48.112;18.418;2022-09-21T13:49:30;27.90;27.80
24260;DHT22;12384;48.112;18.418;2022-09-21T13:52:03;27.80;28.10
24260;DHT22;12384;48.112;18.418;2022-09-21T13:54:36;27.90;28.00
24260;DHT22;12384;48.112;18.418;2022-09-21T13:57:16;28.10;27.50
24260;DHT22;12384;48.112;18.418;2022-09-21T13:59:47;28.30;26.80
24260;DHT22;12384;48.112;18.418;2022-09-21T14:02:31;28.50;26.90
24260;DHT22;12384;48.112;18.418;2022-09-21T14:05:06;28.60;26.80
24260;DHT22;12384;48.112;18.418;2022-09-21T14:07:36;28.70;26.80
24260;DHT22;12384;48.112;18.418;2022-09-21T14:10:07;28.80;26.80
24260;DHT22;12384;48.112;18.418;2022-09-21T14:12:40;29.00;27.00
24260;DHT22;12384;48.112;18.418;2022-09-21T14:15:35;29.00;26.40
24260;DHT22;12384;48.112;18.418;2022-09-21T14:18:34;28.60;26.20
24260;DHT22;12384;48.112;18.418;2022-09-21T14:21:16;27.80;26.10
24260;DHT22;12384;48.112;18.418;2022-09-21T14:24:16;26.90;26.60
24260;DHT22;12384;48.112;18.418;2022-09-21T14:26:59;25.80;27.20
24260;DHT22;12384;48.112;18.418;2022-09-21T14:29:37;24.90;27.90
24260;DHT22;12384;48.112;18.418;2022-09-21T14:32:13;24.00;28.40
24260;DHT22;12384;48.112;18.418;2022-09-21T14:34:46;23.20;29.40
24260;DHT22;12384;48.112;18.418;2022-09-21T14:37:26;22.40;31.00
24260;DHT22;12384;48.112;18.418;2022-09-21T14:39:57;21.70;32.60
24260;DHT22;12384;48.112;18.418;2022-09-21T14:42:28;21.00;33.30
24260;DHT22;12384;48.112;18.418;2022-09-21T14:44:58;20.40;34.40
24260;DHT22;12384;48.112;18.418;2022-09-21T14:47:45;19.80;35.60
24260;DHT22;12384;48.112;18.418;2022-09-21T14:50:31;19.40;36.50
24260;DHT22;12384;48.112;18.418;2022-09-21T14:53:18;19.00;37.50
24260;DHT22;12384;48.112;18.418;2022-09-21T14:56:05;18.70;38.00
24260;DHT22;12384;48.112;18.418;2022-09-21T14:58:48;18.50;38.50
24260;DHT22;12384;48.112;18.418;2022-09-21T15:01:34;18.40;39.00
24260;DHT22;12384;48.112;18.418;2022-09-21T15:04:27;18.30;39.30
24260;DHT22;12384;48.112;18.418;2022-09-21T15:07:06;18.10;39.70
24260;DHT22;12384;48.112;18.418;2022-09-21T15:10:10;18.00;39.40
24260;DHT22;12384;48.112;18.418;2022-09-21T15:13:14;17.90;39.60
24260;DHT22;12384;48.112;18.418;2022-09-21T15:15:57;17.70;40.10
24260;DHT22;12384;48.112;18.418;2022-09-21T15:18:27;17.50;40.30
24260;DHT22;12384;48.112;18.418;2022-09-21T15:21:00;17.30;40.50
24260;DHT22;12384;48.112;18.418;2022-09-21T15:23:32;17.20;41.00
24260;DHT22;12384;48.112;18.418;2022-09-21T15:26:03;17.00;41.00
24260;DHT22;12384;48.112;18.418;2022-09-21T15:28:35;16.80;41.10
24260;DHT22;12384;48.112;18.418;2022-09-21T15:31:31;16.60;41.40
24260;DHT22;12384;48.112;18.418;2022-09-21T15:34:02;16.40;41.50
24260;DHT22;12384;48.112;18.418;2022-09-21T15:36:36;16.30;41.80
24260;DHT22;12384;48.112;18.418;2022-09-21T15:39:05;16.10;42.20
24260;DHT22;12384;48.112;18.418;2022-09-21T15:41:38;16.00;42.40
24260;DHT22;12384;48.112;18.418;2022-09-21T15:44:14;15.90;42.50
24260;DHT22;12384;48.112;18.418;2022-09-21T15:46:44;15.80;43.00
24260;DHT22;12384;48.112;18.418;2022-09-21T15:49:17;15.70;42.60
24260;DHT22;12384;48.112;18.418;2022-09-21T15:51:51;15.50;42.80
24260;DHT22;12384;48.112;18.418;2022-09-21T15:54:28;15.40;43.00
24260;DHT22;12384;48.112;18.418;2022-09-21T15:57:00;15.30;43.10
24260;DHT22;12384;48.112;18.418;2022-09-21T15:59:34;15.30;43.30
24260;DHT22;12384;48.112;18.418;2022-09-21T16:02:10;15.20;43.70
24260;DHT22;12384;48.112;18.418;2022-09-21T16:04:45;15.10;43.90
24260;DHT22;12384;48.112;18.418;2022-09-21T16:07:29;15.00;44.20
24260;DHT22;12384;48.112;18.418;2022-09-21T16:09:59;14.90;44.30
24260;DHT22;12384;48.112;18.418;2022-09-21T16:12:39;14.80;44.40
24260;DHT22;12384;48.112;18.418;2022-09-21T16:15:17;14.80;44.50
24260;DHT22;12384;48.112;18.418;2022-09-21T16:18:01;14.70;44.50
24260;DHT22;12384;48.112;18.418;2022-09-21T16:20:42;14.60;44.60
24260;DHT22;12384;48.112;18.418;2022-09-21T16:23:14;14.50;44.60
24260;DHT22;12384;48.112;18.418;2022-09-21T16:25:43;14.50;44.80
24260;DHT22;12384;48.112;18.418;2022-09-21T16:28:33;14.40;45.00
24260;DHT22;12384;48.112;18.418;2022-09-21T16:31:23;14.30;45.00
24260;DHT22;12384;48.112;18.418;2022-09-21T16:34:03;14.30;45.30